createdAt,value
2022-11-17T00:05:08.483Z,80.33
2022-11-17T00:20:30.906Z,79.37
2022-11-17T00:35:34.580Z,78.84
2022-11-17T00:50:37.696Z,79.60
2022-11-17T01:05:40.817Z,80.29
2022-11-17T01:20:44.255Z,80.77
2022-11-17T01:35:47.631Z,81.37
2022-11-17T01:50:51.048Z,82.02
2022-11-17T02:06:09.950Z,82.48
2022-11-17T02:21:35.229Z,82.86
2022-11-17T02:36:50.897Z,83.28
2022-11-17T02:51:58.161Z,84.18
2022-11-17T03:07:01.331Z,84.28
2022-11-17T03:22:28.474Z,84.34
2022-11-17T03:37:35.945Z,84.17
2022-11-17T03:52:39.308Z,84.20
2022-11-17T04:07:45.184Z,84.23
2022-11-17T04:23:07.235Z,84.34
2022-11-17T04:38:12.627Z,84.55
2022-11-17T04:53:15.887Z,84.74
2022-11-17T05:08:19.036Z,84.96
2022-11-17T05:23:41.093Z,84.67
2022-11-17T05:38:44.453Z,84.43
2022-11-17T05:53:49.402Z,84.28
2022-11-17T06:08:52.667Z,82.89
2022-11-17T06:23:56.249Z,80.49
2022-11-17T06:38:59.607Z,78.23
2022-11-17T06:54:04.682Z,78.08
2022-11-17T07:09:11.571Z,77.74
2022-11-17T07:24:15.321Z,77.28
2022-11-17T07:39:21.522Z,77.07
2022-11-17T07:54:25.674Z,76.79
2022-11-17T08:09:29.510Z,76.57
2022-11-17T08:24:33.026Z,76.32
2022-11-17T08:39:36.385Z,76.56
2022-11-17T08:54:40.101Z,76.34
2022-11-17T09:09:44.348Z,75.61
2022-11-17T09:24:47.807Z,74.84
2022-11-17T09:39:51.525Z,72.65
2022-11-17T09:55:21.876Z,71.31
2022-11-17T10:10:35.286Z,69.67
2022-11-17T10:25:41.797Z,69.03
2022-11-17T10:40:45.740Z,68.19
2022-11-17T10:56:05.355Z,67.87
2022-11-17T11:11:19.618Z,65.69
2022-11-17T11:26:47.335Z,65.47
2022-11-17T11:42:22.610Z,63.16
2022-11-17T11:57:35.850Z,62.41
2022-11-17T12:12:40.994Z,59.00
2022-11-17T12:27:46.113Z,56.61
2022-11-17T12:43:28.086Z,56.35
2022-11-17T12:59:05.161Z,56.02
2022-11-17T13:14:14.420Z,48.96
2022-11-17T13:29:23.044Z,44.22
2022-11-17T13:44:28.688Z,43.98
2022-11-17T13:59:35.279Z,47.73
2022-11-17T14:14:38.895Z,50.86
2022-11-17T14:29:42.768Z,53.39
2022-11-17T14:44:46.805Z,55.16
2022-11-17T14:59:50.110Z,56.75
2022-11-17T15:14:53.969Z,58.27
2022-11-17T15:29:57.757Z,60.05
2022-11-17T15:45:01.327Z,60.90
2022-11-17T16:00:07.066Z,61.96
2022-11-17T16:15:11.132Z,62.87
2022-11-17T16:30:16.061Z,63.42
2022-11-17T16:45:20.185Z,64.53
2022-11-17T17:00:23.478Z,65.39
2022-11-17T17:15:26.922Z,66.19
2022-11-17T17:30:30.897Z,66.87
2022-11-17T17:45:38.124Z,67.27
2022-11-17T18:00:41.647Z,67.98
2022-11-17T18:15:45.445Z,68.21
2022-11-17T18:30:49.569Z,68.93
2022-11-17T18:45:53.223Z,69.17
2022-11-17T19:00:58.069Z,69.88
2022-11-17T19:16:22.809Z,70.46
2022-11-17T19:31:26.677Z,70.68
2022-11-17T19:46:31.931Z,71.03
2022-11-17T20:01:36.095Z,71.65
2022-11-17T20:16:39.683Z,71.79
2022-11-17T20:31:43.102Z,71.98
2022-11-17T20:46:46.658Z,72.58
2022-11-17T21:01:50.821Z,73.02
2022-11-17T21:16:57.847Z,73.44
2022-11-17T21:32:01.220Z,74.09
2022-11-17T21:47:04.468Z,74.42
2022-11-17T22:02:10.245Z,75.36
2022-11-17T22:17:14.027Z,78.11
2022-11-17T22:32:17.461Z,79.49
2022-11-17T22:47:20.696Z,82.39
2022-11-17T23:02:24.240Z,83.57
2022-11-17T23:17:27.838Z,85.11
2022-11-17T23:32:31.151Z,85.09
2022-11-17T23:47:34.982Z,84.60
